sensor_id;sensor_type;location;lat;lon;timestamp;temperature;humidity
50570;DHT22;36525;49.398;7.614;2023-07-29T00:01:21;17.90;99.90
50570;DHT22;36525;49.398;7.614;2023-07-29T00:03:48;17.80;99.90
50570;DHT22;36525;49.398;7.614;2023-07-29T00:06:15;17.90;99.90
50570;DHT22;36525;49.398;7.614;2023-07-29T00:08:42;17.90;99.90
50570;DHT22;36525;49.398;7.614;2023-07-29T00:11:10;17.90;99.90
50570;DHT22;36525;49.398;7.614;2023-07-29T00:13:37;17.90;99.90
50570;DHT22;36525;49.398;7.614;2023-07-29T00:16:05;17.90;99.90
50570;DHT22;36525;49.398;7.614;2023-07-29T00:18:33;18.00;99.90
50570;DHT22;36525;49.398;7.614;2023-07-29T00:21:00;18.00;99.90
50570;DHT22;36525;49.398;7.614;2023-07-29T00:23:27;18.00;99.90
50570;DHT22;36525;49.398;7.614;2023-07-29T00:25:54;18.00;99.90
50570;DHT22;36525;49.398;7.614;2023-07-29T00:28:21;18.10;99.90
50570;DHT22;36525;49.398;7.614;2023-07-29T00:30:49;18.10;99.90
50570;DHT22;36525;49.398;7.614;2023-07-29T00:33:16;18.20;99.90
50570;DHT22;36525;49.398;7.614;2023-07-29T00:35:43;18.30;99.90
50570;DHT22;36525;49.398;7.614;2023-07-29T00:38:11;18.30;99.90
50570;DHT22;36525;49.398;7.614;2023-07-29T00:40:38;18.30;99.90
50570;DHT22;36525;49.398;7.614;2023-07-29T00:43:06;18.30;99.90
50570;DHT22;36525;49.398;7.614;2023-07-29T00:45:36;18.30;99.90
50570;DHT22;36525;49.398;7.614;2023-07-29T00:48:03;18.30;99.90
50570;DHT22;36525;49.398;7.614;2023-07-29T00:50:32;18.30;99.90
50570;DHT22;36525;49.398;7.614;2023-07-29T00:52:59;18.30;99.90
50570;DHT22;36525;49.398;7.614;2023-07-29T00:55:26;18.30;99.90
50570;DHT22;36525;49.398;7.614;2023-07-29T00:57:54;18.40;99.90
50570;DHT22;36525;49.398;7.614;2023-07-29T01:00:21;18.30;99.90
50570;DHT22;36525;49.398;7.614;2023-07-29T01:02:49;18.30;99.90
50570;DHT22;36525;49.398;7.614;2023-07-29T01:05:18;18.40;99.90
50570;DHT22;36525;49.398;7.614;2023-07-29T01:10:47;18.30;99.90
50570;DHT22;36525;49.398;7.614;2023-07-29T01:16:04;18.30;99.90
50570;DHT22;36525;49.398;7.614;2023-07-29T01:18:45;18.30;99.90
50570;DHT22;36525;49.398;7.614;2023-07-29T01:21:14;18.30;99.90
50570;DHT22;36525;49.398;7.614;2023-07-29T01:23:43;18.30;99.90
50570;DHT22;36525;49.398;7.614;2023-07-29T01:26:11;18.30;99.90
50570;DHT22;36525;49.398;7.614;2023-07-29T01:28:38;18.40;99.90
50570;DHT22;36525;49.398;7.614;2023-07-29T01:31:16;18.40;99.90
50570;DHT22;36525;49.398;7.614;2023-07-29T01:34:06;18.40;99.90
50570;DHT22;36525;49.398;7.614;2023-07-29T01:36:39;18.40;99.90
50570;DHT22;36525;49.398;7.614;2023-07-29T01:39:10;18.40;99.90
50570;DHT22;36525;49.398;7.614;2023-07-29T01:41:39;18.50;99.90
50570;DHT22;36525;49.398;7.614;2023-07-29T01:44:06;18.40;99.90
50570;DHT22;36525;49.398;7.614;2023-07-29T01:46:34;18.50;99.90
50570;DHT22;36525;49.398;7.614;2023-07-29T01:49:01;18.40;99.90
50570;DHT22;36525;49.398;7.614;2023-07-29T01:51:28;18.50;99.90
50570;DHT22;36525;49.398;7.614;2023-07-29T01:53:55;18.40;99.90
50570;DHT22;36525;49.398;7.614;2023-07-29T01:56:24;18.50;99.90
50570;DHT22;36525;49.398;7.614;2023-07-29T01:58:51;18.50;99.90
50570;DHT22;36525;49.398;7.614;2023-07-29T02:01:18;18.40;99.90
50570;DHT22;36525;49.398;7.614;2023-07-29T02:03:45;18.50;99.90
50570;DHT22;36525;49.398;7.614;2023-07-29T02:06:12;18.40;99.90
50570;DHT22;36525;49.398;7.614;2023-07-29T02:08:39;18.40;99.90
50570;DHT22;36525;49.398;7.614;2023-07-29T02:11:07;18.30;99.90
50570;DHT22;36525;49.398;7.614;2023-07-29T02:13:35;18.30;99.90
50570;DHT22;36525;49.398;7.614;2023-07-29T02:16:02;18.30;99.90
50570;DHT22;36525;49.398;7.614;2023-07-29T02:18:29;18.30;99.90
50570;DHT22;36525;49.398;7.614;2023-07-29T02:20:56;18.30;99.90
50570;DHT22;36525;49.398;7.614;2023-07-29T02:23:23;18.20;99.90
50570;DHT22;36525;49.398;7.614;2023-07-29T02:25:51;18.20;99.90
50570;DHT22;36525;49.398;7.614;2023-07-29T02:28:18;18.20;99.90
50570;DHT22;36525;49.398;7.614;2023-07-29T02:30:45;18.20;99.90
50570;DHT22;36525;49.398;7.614;2023-07-29T02:33:12;18.20;99.90
50570;DHT22;36525;49.398;7.614;2023-07-29T02:35:42;18.20;99.90
50570;DHT22;36525;49.398;7.614;2023-07-29T02:38:09;18.20;99.90
50570;DHT22;36525;49.398;7.614;2023-07-29T02:40:37;18.20;99.90
50570;DHT22;36525;49.398;7.614;2023-07-29T02:43:04;18.20;99.90
50570;DHT22;36525;49.398;7.614;2023-07-29T02:45:31;18.20;99.90
50570;DHT22;36525;49.398;7.614;2023-07-29T02:47:58;18.20;99.90
50570;DHT22;36525;49.398;7.614;2023-07-29T02:50:26;18.20;99.90
50570;DHT22;36525;49.398;7.614;2023-07-29T02:52:53;18.20;99.90
50570;DHT22;36525;49.398;7.614;2023-07-29T02:55:20;18.30;99.90
50570;DHT22;36525;49.398;7.614;2023-07-29T02:57:47;18.30;99.90
50570;DHT22;36525;49.398;7.614;2023-07-29T03:00:15;18.30;99.90
50570;DHT22;36525;49.398;7.614;2023-07-29T03:02:42;18.30;99.90
50570;DHT22;36525;49.398;7.614;2023-07-29T03:05:09;18.40;99.90
50570;DHT22;36525;49.398;7.614;2023-07-29T03:07:36;18.40;99.90
50570;DHT22;36525;49.398;7.614;2023-07-29T03:10:03;18.40;99.90
50570;DHT22;36525;49.398;7.614;2023-07-29T03:12:31;18.40;99.90
50570;DHT22;36525;49.398;7.614;2023-07-29T03:14:58;18.40;99.90
50570;DHT22;36525;49.398;7.614;2023-07-29T03:17:27;18.40;99.90
50570;DHT22;36525;49.398;7.614;2023-07-29T03:19:54;18.40;99.90
50570;DHT22;36525;49.398;7.614;2023-07-29T03:22:26;18.40;99.90
50570;DHT22;36525;49.398;7.614;2023-07-29T03:24:53;18.50;99.90
50570;DHT22;36525;49.398;7.614;2023-07-29T03:27:20;18.50;99.90
50570;DHT22;36525;49.398;7.614;2023-07-29T03:29:47;18.50;99.90
50570;DHT22;36525;49.398;7.614;2023-07-29T03:32:14;18.50;99.90
50570;DHT22;36525;49.398;7.614;2023-07-29T03:34:42;18.50;99.90
50570;DHT22;36525;49.398;7.614;2023-07-29T03:37:09;18.60;99.90
50570;DHT22;36525;49.398;7.614;2023-07-29T03:39:37;18.50;99.90
50570;DHT22;36525;49.398;7.614;2023-07-29T03:42:04;18.50;99.90
50570;DHT22;36525;49.398;7.614;2023-07-29T03:44:31;18.50;99.90
50570;DHT22;36525;49.398;7.614;2023-07-29T03:46:58;18.50;99.90
50570;DHT22;36525;49.398;7.614;2023-07-29T03:49:25;18.50;99.90
50570;DHT22;36525;49.398;7.614;2023-07-29T03:51:52;18.50;99.90
50570;DHT22;36525;49.398;7.614;2023-07-29T03:54:20;18.40;99.90
50570;DHT22;36525;49.398;7.614;2023-07-29T03:56:47;18.40;99.90
50570;DHT22;36525;49.398;7.614;2023-07-29T03:59:14;18.40;99.90
50570;DHT22;36525;49.398;7.614;2023-07-29T04:01:41;18.40;99.90
50570;DHT22;36525;49.398;7.614;2023-07-29T04:04:08;18.30;99.90
50570;DHT22;36525;49.398;7.614;2023-07-29T04:06:36;18.20;99.90
50570;DHT22;36525;49.398;7.614;2023-07-29T04:09:03;18.20;99.90
50570;DHT22;36525;49.398;7.614;2023-07-29T04:11:30;18.20;99.90
50570;DHT22;36525;49.398;7.614;2023-07-29T04:13:57;18.20;99.90
50570;DHT22;36525;49.398;7.614;2023-07-29T04:16:24;18.20;99.90
50570;DHT22;36525;49.398;7.614;2023-07-29T04:18:51;18.20;99.90
50570;DHT22;36525;49.398;7.614;2023-07-29T04:21:18;18.20;99.90
50570;DHT22;36525;49.398;7.614;2023-07-29T04:23:45;18.20;99.90
50570;DHT22;36525;49.398;7.614;2023-07-29T04:26:12;18.20;99.90
50570;DHT22;36525;49.398;7.614;2023-07-29T04:28:39;18.20;99.90
50570;DHT22;36525;49.398;7.614;2023-07-29T04:31:07;18.30;99.90
50570;DHT22;36525;49.398;7.614;2023-07-29T04:33:34;18.30;99.90
50570;DHT22;36525;49.398;7.614;2023-07-29T04:36:03;18.30;99.90
50570;DHT22;36525;49.398;7.614;2023-07-29T04:38:32;18.30;99.90
50570;DHT22;36525;49.398;7.614;2023-07-29T04:41:00;18.30;99.90
50570;DHT22;36525;49.398;7.614;2023-07-29T04:43:31;18.30;99.90
50570;DHT22;36525;49.398;7.614;2023-07-29T04:45:59;18.40;99.90
50570;DHT22;36525;49.398;7.614;2023-07-29T04:48:29;18.40;99.90
50570;DHT22;36525;49.398;7.614;2023-07-29T04:50:57;18.40;99.90
50570;DHT22;36525;49.398;7.614;2023-07-29T04:53:24;18.40;99.90
50570;DHT22;36525;49.398;7.614;2023-07-29T04:55:51;18.50;99.90
50570;DHT22;36525;49.398;7.614;2023-07-29T04:58:18;18.50;99.90
50570;DHT22;36525;49.398;7.614;2023-07-29T05:00:47;18.50;99.90
50570;DHT22;36525;49.398;7.614;2023-07-29T05:03:14;18.60;99.90
50570;DHT22;36525;49.398;7.614;2023-07-29T05:05:41;18.60;99.90
50570;DHT22;36525;49.398;7.614;2023-07-29T05:08:08;18.50;99.90
50570;DHT22;36525;49.398;7.614;2023-07-29T05:10:35;18.50;99.90
50570;DHT22;36525;49.398;7.614;2023-07-29T05:13:02;18.50;99.90
50570;DHT22;36525;49.398;7.614;2023-07-29T05:15:29;18.50;99.90
50570;DHT22;36525;49.398;7.614;2023-07-29T05:17:57;18.50;99.90
50570;DHT22;36525;49.398;7.614;2023-07-29T05:20:24;18.50;99.90
50570;DHT22;36525;49.398;7.614;2023-07-29T05:22:51;18.50;99.90
50570;DHT22;36525;49.398;7.614;2023-07-29T05:25:18;18.50;99.90
50570;DHT22;36525;49.398;7.614;2023-07-29T05:27:45;18.50;99.90
50570;DHT22;36525;49.398;7.614;2023-07-29T05:30:12;18.50;99.90
50570;DHT22;36525;49.398;7.614;2023-07-29T05:32:39;18.50;99.90
50570;DHT22;36525;49.398;7.614;2023-07-29T05:35:07;18.50;99.90
50570;DHT22;36525;49.398;7.614;2023-07-29T05:37:34;18.50;99.90
50570;DHT22;36525;49.398;7.614;2023-07-29T05:40:01;18.50;99.90
50570;DHT22;36525;49.398;7.614;2023-07-29T05:42:28;18.60;99.90
50570;DHT22;36525;49.398;7.614;2023-07-29T05:44:55;18.60;99.90
50570;DHT22;36525;49.398;7.614;2023-07-29T05:47:22;18.60;99.90
50570;DHT22;36525;49.398;7.614;2023-07-29T05:49:52;18.50;99.90
50570;DHT22;36525;49.398;7.614;2023-07-29T05:52:19;18.60;99.90
50570;DHT22;36525;49.398;7.614;2023-07-29T05:54:46;18.60;99.90
50570;DHT22;36525;49.398;7.614;2023-07-29T05:57:13;18.60;99.90
50570;DHT22;36525;49.398;7.614;2023-07-29T05:59:40;18.60;99.90
50570;DHT22;36525;49.398;7.614;2023-07-29T06:02:07;18.70;99.90
50570;DHT22;36525;49.398;7.614;2023-07-29T06:04:34;18.70;99.90
50570;DHT22;36525;49.398;7.614;2023-07-29T06:07:02;18.80;99.90
50570;DHT22;36525;49.398;7.614;2023-07-29T06:09:29;18.80;99.90
50570;DHT22;36525;49.398;7.614;2023-07-29T06:11:56;18.90;99.90
50570;DHT22;36525;49.398;7.614;2023-07-29T06:14:23;18.80;99.90
50570;DHT22;36525;49.398;7.614;2023-07-29T06:16:50;18.80;99.90
50570;DHT22;36525;49.398;7.614;2023-07-29T06:19:19;18.80;99.90
50570;DHT22;36525;49.398;7.614;2023-07-29T06:21:47;18.80;99.90
50570;DHT22;36525;49.398;7.614;2023-07-29T06:24:17;18.90;99.90
50570;DHT22;36525;49.398;7.614;2023-07-29T06:26:44;18.90;99.90
50570;DHT22;36525;49.398;7.614;2023-07-29T06:29:11;18.90;99.90
50570;DHT22;36525;49.398;7.614;2023-07-29T06:31:38;19.00;99.90
50570;DHT22;36525;49.398;7.614;2023-07-29T06:34:06;19.00;99.90
50570;DHT22;36525;49.398;7.614;2023-07-29T06:36:33;19.10;99.90
50570;DHT22;36525;49.398;7.614;2023-07-29T06:39:00;19.30;99.90
50570;DHT22;36525;49.398;7.614;2023-07-29T06:41:27;19.40;99.90
50570;DHT22;36525;49.398;7.614;2023-07-29T06:43:55;19.50;99.90
50570;DHT22;36525;49.398;7.614;2023-07-29T06:46:22;19.50;99.90
50570;DHT22;36525;49.398;7.614;2023-07-29T06:48:49;19.50;99.90
50570;DHT22;36525;49.398;7.614;2023-07-29T06:51:16;19.50;99.90
50570;DHT22;36525;49.398;7.614;2023-07-29T06:53:43;19.50;99.90
50570;DHT22;36525;49.398;7.614;2023-07-29T06:56:10;19.50;99.90
50570;DHT22;36525;49.398;7.614;2023-07-29T06:58:37;19.50;99.90
50570;DHT22;36525;49.398;7.614;2023-07-29T07:01:04;19.50;99.90
50570;DHT22;36525;49.398;7.614;2023-07-29T07:03:31;19.40;99.90
50570;DHT22;36525;49.398;7.614;2023-07-29T07:05:58;19.40;99.90
50570;DHT22;36525;49.398;7.614;2023-07-29T07:08:26;19.40;99.90
50570;DHT22;36525;49.398;7.614;2023-07-29T07:10:53;19.30;99.90
50570;DHT22;36525;49.398;7.614;2023-07-29T07:13:20;19.20;99.90
50570;DHT22;36525;49.398;7.614;2023-07-29T07:15:47;19.20;99.90
50570;DHT22;36525;49.398;7.614;2023-07-29T07:18:14;19.20;99.90
50570;DHT22;36525;49.398;7.614;2023-07-29T07:20:41;19.20;99.90
50570;DHT22;36525;49.398;7.614;2023-07-29T07:23:08;19.20;99.90
50570;DHT22;36525;49.398;7.614;2023-07-29T07:25:38;19.20;99.90
50570;DHT22;36525;49.398;7.614;2023-07-29T07:28:06;19.40;99.90
50570;DHT22;36525;49.398;7.614;2023-07-29T07:30:33;19.50;99.90
50570;DHT22;36525;49.398;7.614;2023-07-29T07:33:00;19.50;99.90
50570;DHT22;36525;49.398;7.614;2023-07-29T07:35:28;19.60;99.90
50570;DHT22;36525;49.398;7.614;2023-07-29T07:37:57;19.70;99.90
50570;DHT22;36525;49.398;7.614;2023-07-29T07:40:26;19.70;99.90
50570;DHT22;36525;49.398;7.614;2023-07-29T07:42:53;19.70;99.90
50570;DHT22;36525;49.398;7.614;2023-07-29T07:45:20;19.70;99.90
50570;DHT22;36525;49.398;7.614;2023-07-29T07:47:47;19.70;99.90
50570;DHT22;36525;49.398;7.614;2023-07-29T07:50:14;19.70;99.90
50570;DHT22;36525;49.398;7.614;2023-07-29T07:52:42;19.60;99.90
50570;DHT22;36525;49.398;7.614;2023-07-29T07:55:09;19.40;99.90
50570;DHT22;36525;49.398;7.614;2023-07-29T07:57:36;19.40;99.90
50570;DHT22;36525;49.398;7.614;2023-07-29T08:00:03;19.50;99.90
50570;DHT22;36525;49.398;7.614;2023-07-29T08:02:31;19.60;99.90
50570;DHT22;36525;49.398;7.614;2023-07-29T08:04:58;19.90;99.90
50570;DHT22;36525;49.398;7.614;2023-07-29T08:07:25;20.00;99.90
50570;DHT22;36525;49.398;7.614;2023-07-29T08:09:52;20.00;99.90
50570;DHT22;36525;49.398;7.614;2023-07-29T08:12:19;19.80;99.90
50570;DHT22;36525;49.398;7.614;2023-07-29T08:14:46;19.60;99.90
50570;DHT22;36525;49.398;7.614;2023-07-29T08:17:13;19.60;99.90
50570;DHT22;36525;49.398;7.614;2023-07-29T08:19:40;19.70;99.90
50570;DHT22;36525;49.398;7.614;2023-07-29T08:22:07;19.70;99.90
50570;DHT22;36525;49.398;7.614;2023-07-29T08:24:34;19.80;99.90
50570;DHT22;36525;49.398;7.614;2023-07-29T08:27:01;20.10;99.90
50570;DHT22;36525;49.398;7.614;2023-07-29T08:29:29;20.30;99.90
50570;DHT22;36525;49.398;7.614;2023-07-29T08:31:56;20.20;99.90
50570;DHT22;36525;49.398;7.614;2023-07-29T08:34:23;20.20;99.90
50570;DHT22;36525;49.398;7.614;2023-07-29T08:36:50;20.10;99.90
50570;DHT22;36525;49.398;7.614;2023-07-29T08:39:17;20.40;99.90
50570;DHT22;36525;49.398;7.614;2023-07-29T08:44:23;21.20;99.90
50570;DHT22;36525;49.398;7.614;2023-07-29T08:46:51;21.50;99.90
50570;DHT22;36525;49.398;7.614;2023-07-29T08:49:21;22.00;99.90
50570;DHT22;36525;49.398;7.614;2023-07-29T08:51:50;22.60;99.90
50570;DHT22;36525;49.398;7.614;2023-07-29T08:54:20;22.80;99.90
50570;DHT22;36525;49.398;7.614;2023-07-29T08:56:47;23.30;99.90
50570;DHT22;36525;49.398;7.614;2023-07-29T08:59:15;23.10;99.90
50570;DHT22;36525;49.398;7.614;2023-07-29T09:01:43;23.30;99.90
50570;DHT22;36525;49.398;7.614;2023-07-29T09:04:10;22.60;99.90
50570;DHT22;36525;49.398;7.614;2023-07-29T09:06:39;22.40;99.90
50570;DHT22;36525;49.398;7.614;2023-07-29T09:09:07;22.50;99.90
50570;DHT22;36525;49.398;7.614;2023-07-29T09:11:39;23.20;99.90
50570;DHT22;36525;49.398;7.614;2023-07-29T09:14:09;24.20;99.90
50570;DHT22;36525;49.398;7.614;2023-07-29T09:16:37;24.40;99.90
50570;DHT22;36525;49.398;7.614;2023-07-29T09:19:05;24.00;99.90
50570;DHT22;36525;49.398;7.614;2023-07-29T09:21:32;24.10;99.90
50570;DHT22;36525;49.398;7.614;2023-07-29T09:24:03;24.40;99.90
50570;DHT22;36525;49.398;7.614;2023-07-29T09:26:31;24.70;99.90
50570;DHT22;36525;49.398;7.614;2023-07-29T09:28:59;24.70;99.90
50570;DHT22;36525;49.398;7.614;2023-07-29T09:31:28;24.80;99.90
50570;DHT22;36525;49.398;7.614;2023-07-29T09:34:01;25.10;99.90
50570;DHT22;36525;49.398;7.614;2023-07-29T09:36:32;25.20;99.90
50570;DHT22;36525;49.398;7.614;2023-07-29T09:39:00;25.30;99.90
50570;DHT22;36525;49.398;7.614;2023-07-29T09:41:29;25.20;99.90
50570;DHT22;36525;49.398;7.614;2023-07-29T09:44:01;25.40;99.90
50570;DHT22;36525;49.398;7.614;2023-07-29T09:46:35;25.30;99.90
50570;DHT22;36525;49.398;7.614;2023-07-29T09:49:05;24.20;99.90
50570;DHT22;36525;49.398;7.614;2023-07-29T09:51:38;24.40;99.90
50570;DHT22;36525;49.398;7.614;2023-07-29T09:54:09;24.10;99.90
50570;DHT22;36525;49.398;7.614;2023-07-29T09:56:41;23.50;99.90
50570;DHT22;36525;49.398;7.614;2023-07-29T09:59:11;23.30;99.90
50570;DHT22;36525;49.398;7.614;2023-07-29T10:01:41;23.00;99.90
50570;DHT22;36525;49.398;7.614;2023-07-29T10:04:09;22.40;99.90
50570;DHT22;36525;49.398;7.614;2023-07-29T10:06:39;23.10;99.90
50570;DHT22;36525;49.398;7.614;2023-07-29T10:09:11;24.10;99.90
50570;DHT22;36525;49.398;7.614;2023-07-29T10:11:40;25.00;99.90
50570;DHT22;36525;49.398;7.614;2023-07-29T10:14:08;24.90;99.90
50570;DHT22;36525;49.398;7.614;2023-07-29T10:16:36;25.60;99.90
50570;DHT22;36525;49.398;7.614;2023-07-29T10:19:07;25.50;99.90
50570;DHT22;36525;49.398;7.614;2023-07-29T10:21:39;25.40;99.90
50570;DHT22;36525;49.398;7.614;2023-07-29T10:24:10;25.70;99.90
50570;DHT22;36525;49.398;7.614;2023-07-29T10:26:46;25.70;99.90
50570;DHT22;36525;49.398;7.614;2023-07-29T10:29:17;25.50;99.90
50570;DHT22;36525;49.398;7.614;2023-07-29T10:31:46;25.90;99.90
50570;DHT22;36525;49.398;7.614;2023-07-29T10:34:16;26.10;99.90
50570;DHT22;36525;49.398;7.614;2023-07-29T10:36:44;25.90;99.90
50570;DHT22;36525;49.398;7.614;2023-07-29T10:39:12;26.00;99.90
50570;DHT22;36525;49.398;7.614;2023-07-29T10:42:05;26.10;99.90
50570;DHT22;36525;49.398;7.614;2023-07-29T10:47:26;25.00;99.90
50570;DHT22;36525;49.398;7.614;2023-07-29T10:49:57;25.00;99.90
50570;DHT22;36525;49.398;7.614;2023-07-29T10:52:52;25.60;99.90
50570;DHT22;36525;49.398;7.614;2023-07-29T10:55:34;25.90;99.90
50570;DHT22;36525;49.398;7.614;2023-07-29T10:58:13;24.80;99.90
50570;DHT22;36525;49.398;7.614;2023-07-29T11:00:42;24.00;99.90
50570;DHT22;36525;49.398;7.614;2023-07-29T11:03:12;23.50;99.90
50570;DHT22;36525;49.398;7.614;2023-07-29T11:05:43;23.10;99.90
50570;DHT22;36525;49.398;7.614;2023-07-29T11:08:27;22.90;99.90
50570;DHT22;36525;49.398;7.614;2023-07-29T11:11:12;23.20;99.90
50570;DHT22;36525;49.398;7.614;2023-07-29T11:13:39;23.90;99.90
50570;DHT22;36525;49.398;7.614;2023-07-29T11:16:06;24.50;99.90
50570;DHT22;36525;49.398;7.614;2023-07-29T11:18:35;25.00;99.90
50570;DHT22;36525;49.398;7.614;2023-07-29T11:21:03;25.50;99.90
50570;DHT22;36525;49.398;7.614;2023-07-29T11:23:35;25.70;99.90
50570;DHT22;36525;49.398;7.614;2023-07-29T11:26:04;26.00;99.90
50570;DHT22;36525;49.398;7.614;2023-07-29T11:28:38;25.60;99.90
50570;DHT22;36525;49.398;7.614;2023-07-29T11:31:07;25.30;99.90
50570;DHT22;36525;49.398;7.614;2023-07-29T11:33:34;24.80;99.90
50570;DHT22;36525;49.398;7.614;2023-07-29T11:36:01;24.50;99.90
50570;DHT22;36525;49.398;7.614;2023-07-29T11:38:28;24.50;99.90
50570;DHT22;36525;49.398;7.614;2023-07-29T11:41:01;24.60;99.90
50570;DHT22;36525;49.398;7.614;2023-07-29T11:43:35;24.30;99.90
50570;DHT22;36525;49.398;7.614;2023-07-29T11:46:03;23.80;99.90
50570;DHT22;36525;49.398;7.614;2023-07-29T11:48:33;23.70;99.90
50570;DHT22;36525;49.398;7.614;2023-07-29T11:51:03;23.50;99.90
50570;DHT22;36525;49.398;7.614;2023-07-29T11:53:30;23.50;99.90
50570;DHT22;36525;49.398;7.614;2023-07-29T11:55:58;23.20;99.90
50570;DHT22;36525;49.398;7.614;2023-07-29T11:58:26;23.20;99.90
50570;DHT22;36525;49.398;7.614;2023-07-29T12:00:53;23.20;99.90
50570;DHT22;36525;49.398;7.614;2023-07-29T12:03:21;23.10;99.90
50570;DHT22;36525;49.398;7.614;2023-07-29T12:05:49;23.70;99.90
50570;DHT22;36525;49.398;7.614;2023-07-29T12:08:16;23.90;99.90
50570;DHT22;36525;49.398;7.614;2023-07-29T12:10:43;24.00;99.90
50570;DHT22;36525;49.398;7.614;2023-07-29T12:13:11;24.00;99.90
50570;DHT22;36525;49.398;7.614;2023-07-29T12:15:40;23.90;99.90
50570;DHT22;36525;49.398;7.614;2023-07-29T12:18:07;23.80;99.90
50570;DHT22;36525;49.398;7.614;2023-07-29T12:20:35;24.20;99.90
50570;DHT22;36525;49.398;7.614;2023-07-29T12:23:03;24.20;99.90
50570;DHT22;36525;49.398;7.614;2023-07-29T12:25:33;23.80;99.90
50570;DHT22;36525;49.398;7.614;2023-07-29T12:28:06;23.70;99.90
50570;DHT22;36525;49.398;7.614;2023-07-29T12:30:40;23.50;99.90
50570;DHT22;36525;49.398;7.614;2023-07-29T12:33:08;23.40;99.90
50570;DHT22;36525;49.398;7.614;2023-07-29T12:35:36;23.20;99.90
50570;DHT22;36525;49.398;7.614;2023-07-29T12:38:05;23.30;99.90
50570;DHT22;36525;49.398;7.614;2023-07-29T12:40:32;24.10;99.90
50570;DHT22;36525;49.398;7.614;2023-07-29T12:43:00;24.60;99.90
50570;DHT22;36525;49.398;7.614;2023-07-29T12:45:28;24.60;99.90
50570;DHT22;36525;49.398;7.614;2023-07-29T12:48:02;24.50;99.90
50570;DHT22;36525;49.398;7.614;2023-07-29T12:50:29;24.80;99.90
50570;DHT22;36525;49.398;7.614;2023-07-29T12:52:56;24.50;99.90
50570;DHT22;36525;49.398;7.614;2023-07-29T12:55:24;24.20;99.90
50570;DHT22;36525;49.398;7.614;2023-07-29T12:57:51;24.10;99.90
50570;DHT22;36525;49.398;7.614;2023-07-29T13:00:18;23.80;99.90
50570;DHT22;36525;49.398;7.614;2023-07-29T13:02:45;23.60;99.90
50570;DHT22;36525;49.398;7.614;2023-07-29T13:05:12;23.70;99.90
50570;DHT22;36525;49.398;7.614;2023-07-29T13:07:40;23.70;99.90
50570;DHT22;36525;49.398;7.614;2023-07-29T13:10:08;23.80;99.90
50570;DHT22;36525;49.398;7.614;2023-07-29T13:12:36;23.50;99.90
50570;DHT22;36525;49.398;7.614;2023-07-29T13:15:03;23.30;99.90
50570;DHT22;36525;49.398;7.614;2023-07-29T13:17:31;23.20;99.90
50570;DHT22;36525;49.398;7.614;2023-07-29T13:19:59;23.20;99.90
50570;DHT22;36525;49.398;7.614;2023-07-29T13:22:27;23.50;99.90
50570;DHT22;36525;49.398;7.614;2023-07-29T13:24:54;23.90;99.90
50570;DHT22;36525;49.398;7.614;2023-07-29T13:27:21;24.80;99.90
50570;DHT22;36525;49.398;7.614;2023-07-29T13:29:49;25.50;99.90
50570;DHT22;36525;49.398;7.614;2023-07-29T13:32:16;26.30;99.90
50570;DHT22;36525;49.398;7.614;2023-07-29T13:34:43;26.50;99.90
50570;DHT22;36525;49.398;7.614;2023-07-29T13:37:10;26.70;99.90
50570;DHT22;36525;49.398;7.614;2023-07-29T13:39:37;26.60;99.90
50570;DHT22;36525;49.398;7.614;2023-07-29T13:42:04;26.60;99.90
50570;DHT22;36525;49.398;7.614;2023-07-29T13:44:32;26.00;99.90
50570;DHT22;36525;49.398;7.614;2023-07-29T13:46:59;25.60;99.90
50570;DHT22;36525;49.398;7.614;2023-07-29T13:49:26;25.30;99.90
50570;DHT22;36525;49.398;7.614;2023-07-29T13:51:53;25.00;99.90
50570;DHT22;36525;49.398;7.614;2023-07-29T13:54:20;24.90;99.90
50570;DHT22;36525;49.398;7.614;2023-07-29T13:56:48;25.10;99.90
50570;DHT22;36525;49.398;7.614;2023-07-29T13:59:15;24.90;99.90
50570;DHT22;36525;49.398;7.614;2023-07-29T14:01:42;24.90;99.90
50570;DHT22;36525;49.398;7.614;2023-07-29T14:04:09;24.60;99.90
50570;DHT22;36525;49.398;7.614;2023-07-29T14:06:36;24.40;99.90
50570;DHT22;36525;49.398;7.614;2023-07-29T14:09:12;24.20;99.90
50570;DHT22;36525;49.398;7.614;2023-07-29T14:11:39;24.50;99.90
50570;DHT22;36525;49.398;7.614;2023-07-29T14:14:07;25.30;99.90
50570;DHT22;36525;49.398;7.614;2023-07-29T14:16:35;25.50;99.90
50570;DHT22;36525;49.398;7.614;2023-07-29T14:19:03;25.80;99.90
50570;DHT22;36525;49.398;7.614;2023-07-29T14:21:30;25.80;99.90
50570;DHT22;36525;49.398;7.614;2023-07-29T14:23:57;26.20;99.90
50570;DHT22;36525;49.398;7.614;2023-07-29T14:26:24;26.00;99.90
50570;DHT22;36525;49.398;7.614;2023-07-29T14:28:51;25.50;99.90
50570;DHT22;36525;49.398;7.614;2023-07-29T14:31:18;25.20;99.90
50570;DHT22;36525;49.398;7.614;2023-07-29T14:33:46;25.10;99.90
50570;DHT22;36525;49.398;7.614;2023-07-29T14:36:13;24.80;99.90
50570;DHT22;36525;49.398;7.614;2023-07-29T14:38:40;24.60;99.90
50570;DHT22;36525;49.398;7.614;2023-07-29T14:41:07;24.40;99.90
50570;DHT22;36525;49.398;7.614;2023-07-29T14:43:35;24.70;99.90
50570;DHT22;36525;49.398;7.614;2023-07-29T14:46:02;24.60;99.90
50570;DHT22;36525;49.398;7.614;2023-07-29T14:48:29;24.50;99.90
50570;DHT22;36525;49.398;7.614;2023-07-29T14:50:56;24.40;99.90
50570;DHT22;36525;49.398;7.614;2023-07-29T14:53:23;25.00;99.90
50570;DHT22;36525;49.398;7.614;2023-07-29T14:55:51;25.90;99.90
50570;DHT22;36525;49.398;7.614;2023-07-29T14:58:19;25.80;99.90
50570;DHT22;36525;49.398;7.614;2023-07-29T15:00:46;26.30;99.90
50570;DHT22;36525;49.398;7.614;2023-07-29T15:03:13;27.20;99.90
50570;DHT22;36525;49.398;7.614;2023-07-29T15:05:40;27.10;99.90
50570;DHT22;36525;49.398;7.614;2023-07-29T15:08:07;26.00;99.90
50570;DHT22;36525;49.398;7.614;2023-07-29T15:10:35;26.20;99.90
50570;DHT22;36525;49.398;7.614;2023-07-29T15:13:02;25.60;99.90
50570;DHT22;36525;49.398;7.614;2023-07-29T15:15:29;25.90;99.90
50570;DHT22;36525;49.398;7.614;2023-07-29T15:17:59;26.70;99.90
50570;DHT22;36525;49.398;7.614;2023-07-29T15:20:26;28.00;99.90
50570;DHT22;36525;49.398;7.614;2023-07-29T15:22:53;27.90;99.90
50570;DHT22;36525;49.398;7.614;2023-07-29T15:25:20;27.30;99.90
50570;DHT22;36525;49.398;7.614;2023-07-29T15:27:48;27.00;99.90
50570;DHT22;36525;49.398;7.614;2023-07-29T15:30:15;27.00;99.90
50570;DHT22;36525;49.398;7.614;2023-07-29T15:32:43;26.50;99.90
50570;DHT22;36525;49.398;7.614;2023-07-29T15:35:11;25.90;99.90
50570;DHT22;36525;49.398;7.614;2023-07-29T15:37:38;25.60;99.90
50570;DHT22;36525;49.398;7.614;2023-07-29T15:40:06;25.40;99.90
50570;DHT22;36525;49.398;7.614;2023-07-29T15:42:34;25.00;99.90
50570;DHT22;36525;49.398;7.614;2023-07-29T15:45:01;24.50;99.90
50570;DHT22;36525;49.398;7.614;2023-07-29T15:47:28;24.20;99.90